createdAt,value
2023-01-03T00:01:11.338Z,14.68
2023-01-03T00:03:38.397Z,13.93
2023-01-03T00:06:05.397Z,13.45
2023-01-03T00:08:32.074Z,13.57
2023-01-03T00:10:58.799Z,14.45
2023-01-03T00:13:25.477Z,14.10
2023-01-03T00:15:52.233Z,13.38
2023-01-03T00:18:19.024Z,13.55
2023-01-03T00:20:45.741Z,13.90
2023-01-03T00:23:12.506Z,13.52
2023-01-03T00:25:39.510Z,13.77
2023-01-03T00:28:06.331Z,13.00
2023-01-03T00:30:33.121Z,13.38
2023-01-03T00:32:59.985Z,13.07
2023-01-03T00:35:26.687Z,14.45
2023-01-03T00:37:53.387Z,13.80
2023-01-03T00:40:20.315Z,13.27
2023-01-03T00:43:05.800Z,13.25
2023-01-03T00:45:35.537Z,13.13
2023-01-03T00:48:02.613Z,13.23
2023-01-03T00:50:29.385Z,13.45
2023-01-03T00:52:56.336Z,13.15
2023-01-03T00:55:23.080Z,14.40
2023-01-03T00:57:49.796Z,13.88
2023-01-03T01:00:16.701Z,13.45
2023-01-03T01:02:43.581Z,13.85
2023-01-03T01:05:10.408Z,13.18
2023-01-03T01:07:37.519Z,13.35
2023-01-03T01:10:04.602Z,13.63
2023-01-03T01:12:31.256Z,12.30
2023-01-03T01:14:58.003Z,13.20
2023-01-03T01:17:24.723Z,12.57
2023-01-03T01:19:51.402Z,13.30
2023-01-03T01:22:18.168Z,12.52
2023-01-03T01:24:45.304Z,12.50
2023-01-03T01:27:12.124Z,12.77
2023-01-03T01:29:39.066Z,12.82
2023-01-03T01:32:06.218Z,12.68
2023-01-03T01:34:33.052Z,11.88
2023-01-03T01:36:59.913Z,12.48
2023-01-03T01:39:28.397Z,11.68
2023-01-03T01:42:20.753Z,12.93
2023-01-03T01:45:08.609Z,12.23
2023-01-03T01:47:38.405Z,12.60
2023-01-03T01:50:40.465Z,11.70
2023-01-03T01:53:17.045Z,12.52
2023-01-03T01:55:46.294Z,12.32
2023-01-03T01:58:13.355Z,12.25
2023-01-03T02:00:42.274Z,11.95
2023-01-03T02:03:09.936Z,13.18
2023-01-03T02:05:39.488Z,12.68
2023-01-03T02:08:06.364Z,12.00
2023-01-03T02:10:50.872Z,12.18
2023-01-03T02:13:36.229Z,10.98
2023-01-03T02:16:24.639Z,12.32
2023-01-03T02:19:09.344Z,12.25
2023-01-03T02:21:57.523Z,12.18
2023-01-03T02:24:33.048Z,12.65
2023-01-03T02:27:33.570Z,12.73
2023-01-03T02:30:38.704Z,13.65
2023-01-03T02:33:05.410Z,13.00
2023-01-03T02:36:07.793Z,12.98
2023-01-03T02:38:49.176Z,12.82
2023-01-03T02:41:38.983Z,13.05
2023-01-03T02:44:29.444Z,14.10
2023-01-03T02:47:05.183Z,13.05
2023-01-03T02:49:51.483Z,13.50
2023-01-03T02:52:23.011Z,13.95
2023-01-03T02:55:05.086Z,12.93
2023-01-03T02:57:45.704Z,13.00
2023-01-03T03:00:15.806Z,13.93
2023-01-03T03:02:46.084Z,13.52
2023-01-03T03:05:25.757Z,13.45
2023-01-03T03:07:52.924Z,13.82
2023-01-03T03:10:39.361Z,14.18
2023-01-03T03:13:24.282Z,13.27
2023-01-03T03:15:59.209Z,12.50
2023-01-03T03:18:46.941Z,12.93
2023-01-03T03:21:34.603Z,13.43
2023-01-03T03:24:35.401Z,14.20
2023-01-03T03:27:26.144Z,13.98
2023-01-03T03:29:56.107Z,14.40
2023-01-03T03:32:26.485Z,13.25
2023-01-03T03:34:56.322Z,13.27
2023-01-03T03:37:26.668Z,12.93
2023-01-03T03:40:13.651Z,13.00
2023-01-03T03:43:04.812Z,13.18
2023-01-03T03:45:54.279Z,13.80
2023-01-03T03:49:04.090Z,14.50
2023-01-03T03:51:35.437Z,13.40
2023-01-03T03:54:06.306Z,14.10
2023-01-03T03:56:36.699Z,14.80
2023-01-03T03:59:07.856Z,13.82
2023-01-03T04:01:37.302Z,15.05
2023-01-03T04:04:13.611Z,14.90
2023-01-03T04:06:49.516Z,13.32
2023-01-03T04:09:16.928Z,15.02
2023-01-03T04:11:44.028Z,15.23
2023-01-03T04:14:11.290Z,14.38
2023-01-03T04:16:38.333Z,14.52
2023-01-03T04:19:05.182Z,13.60
2023-01-03T04:21:32.150Z,14.18
2023-01-03T04:23:58.894Z,14.65
2023-01-03T04:26:25.666Z,14.07
2023-01-03T04:28:52.570Z,13.88
2023-01-03T04:31:19.272Z,13.20
2023-01-03T04:33:45.918Z,13.38
2023-01-03T04:36:12.728Z,14.07
2023-01-03T04:38:39.406Z,12.45
2023-01-03T04:41:08.019Z,13.23
2023-01-03T04:43:53.418Z,13.75
2023-01-03T04:46:20.380Z,13.38
2023-01-03T04:48:47.448Z,13.57
2023-01-03T04:51:14.823Z,13.50
2023-01-03T04:53:41.614Z,13.20
2023-01-03T04:56:08.642Z,13.35
2023-01-03T04:58:35.503Z,13.68
2023-01-03T05:01:04.388Z,12.77
2023-01-03T05:03:31.602Z,12.60
2023-01-03T05:06:03.065Z,12.07
2023-01-03T05:08:29.898Z,12.82
2023-01-03T05:10:56.907Z,12.10
2023-01-03T05:13:23.822Z,12.25
2023-01-03T05:15:50.704Z,12.63
2023-01-03T05:18:17.391Z,11.77
2023-01-03T05:21:03.203Z,11.52
2023-01-03T05:23:48.754Z,11.55
2023-01-03T05:26:20.885Z,10.75
2023-01-03T05:28:51.743Z,10.20
2023-01-03T05:31:18.662Z,10.25
2023-01-03T05:33:46.467Z,10.50
2023-01-03T05:36:13.218Z,10.07
2023-01-03T05:38:39.903Z,10.30
2023-01-03T05:41:06.896Z,10.15
2023-01-03T05:43:34.015Z,10.75
2023-01-03T05:46:00.854Z,9.63
2023-01-03T05:48:27.705Z,9.48
2023-01-03T05:50:57.526Z,9.45
2023-01-03T05:53:24.844Z,9.73
2023-01-03T05:55:51.620Z,9.77
2023-01-03T05:58:18.414Z,9.02
2023-01-03T06:00:45.192Z,9.90
2023-01-03T06:03:12.065Z,9.88
2023-01-03T06:05:40.874Z,9.75
2023-01-03T06:08:11.410Z,10.60
2023-01-03T06:10:40.894Z,10.55
2023-01-03T06:13:07.749Z,10.55
2023-01-03T06:15:34.603Z,10.05
2023-01-03T06:18:02.654Z,10.40
2023-01-03T06:20:30.173Z,10.10
2023-01-03T06:22:57.337Z,10.10
2023-01-03T06:25:24.791Z,10.18
2023-01-03T06:27:51.591Z,11.07
2023-01-03T06:30:18.503Z,12.07
2023-01-03T06:32:45.685Z,12.93
2023-01-03T06:35:12.856Z,11.32
2023-01-03T06:37:39.686Z,11.25
2023-01-03T06:40:07.661Z,11.27
2023-01-03T06:42:42.560Z,11.30
2023-01-03T06:45:29.981Z,9.52
2023-01-03T06:48:15.397Z,9.50
2023-01-03T06:51:01.801Z,9.65
2023-01-03T06:53:35.951Z,9.30
2023-01-03T06:56:03.373Z,10.32
2023-01-03T06:58:30.254Z,9.05
2023-01-03T07:00:58.620Z,9.98
2023-01-03T07:03:25.518Z,9.80
2023-01-03T07:05:52.423Z,9.52
2023-01-03T07:08:19.275Z,9.82
2023-01-03T07:10:46.095Z,9.57
2023-01-03T07:13:31.590Z,9.38
2023-01-03T07:15:58.524Z,9.52
2023-01-03T07:18:26.334Z,9.95
2023-01-03T07:20:53.433Z,10.27
2023-01-03T07:23:20.577Z,9.65
2023-01-03T07:25:47.666Z,10.30
2023-01-03T07:28:15.283Z,10.80
2023-01-03T07:30:45.031Z,10.93
2023-01-03T07:33:14.668Z,9.40
2023-01-03T07:35:41.798Z,10.15
2023-01-03T07:38:11.191Z,8.93
2023-01-03T07:40:38.139Z,8.65
2023-01-03T07:43:23.413Z,9.25
2023-01-03T07:45:50.260Z,10.35
2023-01-03T07:48:16.989Z,10.43
2023-01-03T07:50:43.747Z,9.32
2023-01-03T07:53:16.506Z,10.00
2023-01-03T07:55:45.573Z,9.73
2023-01-03T07:58:13.046Z,9.45
2023-01-03T08:00:41.341Z,9.18
2023-01-03T08:03:11.570Z,9.25
2023-01-03T08:05:39.120Z,9.27
2023-01-03T08:08:06.146Z,9.05
2023-01-03T08:10:51.442Z,8.68
2023-01-03T08:13:18.587Z,9.20
2023-01-03T08:15:49.507Z,8.60
2023-01-03T08:18:18.947Z,9.20
2023-01-03T08:20:47.106Z,8.75
2023-01-03T08:23:14.214Z,8.85
2023-01-03T08:25:41.056Z,8.25
2023-01-03T08:28:09.662Z,8.55
2023-01-03T08:30:42.970Z,8.02
2023-01-03T08:33:12.308Z,8.80
2023-01-03T08:35:41.193Z,9.20
2023-01-03T08:38:11.844Z,8.02
2023-01-03T08:40:42.326Z,8.45
2023-01-03T08:43:10.958Z,9.80
2023-01-03T08:45:38.961Z,11.48
2023-01-03T08:48:07.531Z,10.95
2023-01-03T08:50:35.183Z,10.52
2023-01-03T08:53:02.367Z,10.73
2023-01-03T08:55:29.046Z,9.88
2023-01-03T08:57:55.787Z,10.15
2023-01-03T09:00:22.612Z,9.52
2023-01-03T09:02:49.561Z,9.88
2023-01-03T09:05:17.923Z,8.60
2023-01-03T09:07:44.735Z,7.80
2023-01-03T09:10:11.663Z,7.70
2023-01-03T09:12:38.520Z,9.00
2023-01-03T09:15:06.946Z,8.27
2023-01-03T09:17:33.651Z,7.97
2023-01-03T09:20:00.374Z,7.63
2023-01-03T09:22:27.152Z,8.38
2023-01-03T09:24:55.469Z,7.30
2023-01-03T09:27:22.226Z,7.18
2023-01-03T09:29:49.012Z,7.05
2023-01-03T09:32:15.798Z,6.60
2023-01-03T09:34:42.586Z,7.32
2023-01-03T09:37:09.396Z,7.00
2023-01-03T09:39:36.775Z,7.05
2023-01-03T09:42:24.174Z,8.30
2023-01-03T09:44:52.103Z,9.25
2023-01-03T09:47:25.573Z,9.23
2023-01-03T09:53:02.484Z,8.88
2023-01-03T09:55:47.946Z,9.38
2023-01-03T09:58:34.944Z,8.98
2023-01-03T10:01:47.633Z,8.98
2023-01-03T10:04:45.363Z,9.35
2023-01-03T10:07:39.945Z,8.77
2023-01-03T10:10:25.192Z,9.90
2023-01-03T10:13:06.739Z,10.90
2023-01-03T10:15:45.161Z,9.60
2023-01-03T10:18:30.614Z,10.45
2023-01-03T10:21:03.650Z,10.85
2023-01-03T10:23:31.392Z,10.95
2023-01-03T10:25:58.199Z,12.00
2023-01-03T10:28:28.036Z,12.10
2023-01-03T10:31:19.543Z,11.55
2023-01-03T10:33:48.864Z,13.52
2023-01-03T10:36:17.735Z,13.23
2023-01-03T10:38:51.974Z,13.10
2023-01-03T10:41:43.729Z,12.75
2023-01-03T10:44:23.541Z,12.98
2023-01-03T10:46:53.613Z,14.35
2023-01-03T10:49:31.550Z,12.98
2023-01-03T10:52:03.612Z,13.98
2023-01-03T10:54:52.656Z,15.38
2023-01-03T10:57:48.667Z,15.90
2023-01-03T11:00:33.500Z,16.50
2023-01-03T11:03:19.831Z,14.38
2023-01-03T11:06:01.848Z,17.00
2023-01-03T11:08:59.389Z,17.15
2023-01-03T11:11:32.747Z,15.95
2023-01-03T11:14:24.370Z,16.88
2023-01-03T11:17:03.802Z,17.60
2023-01-03T11:19:33.259Z,18.15
2023-01-03T11:22:21.666Z,16.42
2023-01-03T11:25:09.471Z,16.15
2023-01-03T11:28:16.302Z,17.33
2023-01-03T11:31:01.595Z,16.48
2023-01-03T11:33:52.606Z,17.23
2023-01-03T11:36:45.505Z,15.50
2023-01-03T11:39:35.616Z,17.95
2023-01-03T11:42:23.313Z,18.63
2023-01-03T11:45:21.504Z,17.95
2023-01-03T11:48:15.697Z,18.77
2023-01-03T11:51:14.908Z,18.00
2023-01-03T11:54:14.545Z,17.38
2023-01-03T11:56:44.503Z,15.82
2023-01-03T11:59:39.849Z,17.65
2023-01-03T12:02:09.668Z,15.02
2023-01-03T12:05:01.199Z,16.02
2023-01-03T12:08:13.838Z,16.23
2023-01-03T12:11:34.093Z,16.00
2023-01-03T12:14:25.652Z,16.85
2023-01-03T12:17:20.330Z,16.45
2023-01-03T12:19:59.991Z,16.92
2023-01-03T12:22:32.849Z,16.80
2023-01-03T12:25:19.867Z,16.23
2023-01-03T12:28:11.590Z,15.20
2023-01-03T12:30:43.284Z,16.02
2023-01-03T12:33:42.672Z,17.00
2023-01-03T12:36:33.459Z,17.42
2023-01-03T12:39:13.341Z,17.77
2023-01-03T12:41:56.240Z,21.27
2023-01-03T12:44:32.447Z,19.58
2023-01-03T12:47:01.507Z,17.80
2023-01-03T12:50:07.296Z,18.17
2023-01-03T12:52:37.345Z,18.50
2023-01-03T12:55:24.990Z,18.63
2023-01-03T12:57:59.955Z,17.48
2023-01-03T13:00:43.733Z,18.33
2023-01-03T13:03:34.575Z,17.30
2023-01-03T13:06:25.516Z,18.27
2023-01-03T13:09:05.845Z,17.40
2023-01-03T13:11:42.176Z,17.20
2023-01-03T13:14:28.544Z,17.58
2023-01-03T13:17:16.223Z,17.42
2023-01-03T13:20:14.980Z,16.98
2023-01-03T13:23:14.084Z,16.63
2023-01-03T13:25:42.367Z,16.10
2023-01-03T13:28:21.002Z,15.38
2023-01-03T13:30:48.202Z,17.88
2023-01-03T13:33:20.455Z,17.17
2023-01-03T13:35:47.222Z,17.15
2023-01-03T13:38:26.883Z,18.50
2023-01-03T13:41:19.821Z,18.27
2023-01-03T13:43:51.587Z,18.13
2023-01-03T13:46:31.667Z,18.77
2023-01-03T13:49:04.651Z,18.58
2023-01-03T13:51:40.398Z,17.40
2023-01-03T13:54:13.152Z,18.15
2023-01-03T13:56:43.037Z,18.48
2023-01-03T13:59:22.286Z,18.38
2023-01-03T14:02:12.259Z,17.58
2023-01-03T14:05:14.930Z,18.20
2023-01-03T14:08:10.822Z,17.35
2023-01-03T14:10:59.469Z,17.73
2023-01-03T14:13:32.805Z,18.38
2023-01-03T14:16:36.857Z,18.55
2023-01-03T14:19:12.053Z,19.08
2023-01-03T14:21:47.658Z,16.85
2023-01-03T14:26:44.428Z,15.75
2023-01-03T14:29:24.341Z,17.05
2023-01-03T14:31:55.606Z,17.95
2023-01-03T14:34:30.375Z,17.65
2023-01-03T14:37:21.010Z,19.90
2023-01-03T14:40:05.800Z,19.70
2023-01-03T14:42:32.612Z,18.38
2023-01-03T14:45:06.549Z,19.30
2023-01-03T14:47:38.983Z,19.55
2023-01-03T14:50:16.367Z,18.83
2023-01-03T14:52:45.830Z,19.85
2023-01-03T14:55:19.043Z,19.27
2023-01-03T14:57:47.892Z,19.40
2023-01-03T15:00:32.502Z,18.52
2023-01-03T15:03:02.137Z,17.67
2023-01-03T15:05:34.036Z,17.63
2023-01-03T15:08:15.823Z,17.70
2023-01-03T15:10:49.065Z,18.30
2023-01-03T15:13:34.052Z,18.40
2023-01-03T15:16:05.328Z,16.73
2023-01-03T15:18:35.879Z,17.50
2023-01-03T15:21:04.796Z,17.80
2023-01-03T15:23:42.114Z,17.25
2023-01-03T15:26:24.875Z,18.15
2023-01-03T15:28:53.297Z,15.85
2023-01-03T15:31:49.088Z,16.70
2023-01-03T15:34:19.470Z,15.57
2023-01-03T15:36:55.465Z,15.52
2023-01-03T15:39:26.110Z,14.18
2023-01-03T15:42:44.458Z,13.63
2023-01-03T15:45:23.202Z,13.68
2023-01-03T15:47:52.942Z,14.23
2023-01-03T15:50:20.156Z,12.68
2023-01-03T15:52:48.249Z,11.43
2023-01-03T15:55:16.346Z,11.85
2023-01-03T15:57:50.110Z,12.20
2023-01-03T16:00:20.023Z,11.68
2023-01-03T16:02:47.794Z,11.98
2023-01-03T16:05:21.555Z,11.05
2023-01-03T16:07:49.129Z,12.32
2023-01-03T16:10:16.049Z,11.77
2023-01-03T16:12:43.685Z,11.43
2023-01-03T16:15:18.665Z,12.02
2023-01-03T16:17:45.703Z,11.57
2023-01-03T16:20:16.265Z,12.07
2023-01-03T16:22:57.610Z,11.98
2023-01-03T16:25:27.607Z,12.18
2023-01-03T16:27:54.685Z,11.90
2023-01-03T16:30:21.696Z,11.98
2023-01-03T16:32:48.397Z,11.02
2023-01-03T16:35:17.654Z,12.38
2023-01-03T16:37:44.601Z,12.07
2023-01-03T16:40:21.331Z,11.43
2023-01-03T16:42:48.314Z,12.15
2023-01-03T16:45:16.226Z,12.30
2023-01-03T16:47:44.062Z,12.45
2023-01-03T16:50:19.712Z,11.57
2023-01-03T16:55:32.166Z,12.48
2023-01-03T16:58:00.549Z,12.05
2023-01-03T17:00:33.392Z,12.30
2023-01-03T17:03:01.537Z,12.23
2023-01-03T17:05:32.443Z,12.25
2023-01-03T17:08:24.909Z,11.45
2023-01-03T17:10:55.496Z,10.88
2023-01-03T17:13:25.669Z,10.43
2023-01-03T17:15:52.499Z,10.20
2023-01-03T17:18:24.581Z,9.85
2023-01-03T17:20:56.294Z,9.88
2023-01-03T17:23:23.787Z,9.82
2023-01-03T17:25:50.901Z,10.07
2023-01-03T17:28:18.245Z,9.95
2023-01-03T17:30:44.960Z,10.45
2023-01-03T17:33:16.995Z,11.35
2023-01-03T17:35:46.242Z,11.80
2023-01-03T17:38:25.610Z,10.93
2023-01-03T17:40:55.279Z,10.40
2023-01-03T17:43:24.111Z,9.82
2023-01-03T17:46:20.653Z,9.63
2023-01-03T17:49:08.629Z,9.80
2023-01-03T17:51:35.737Z,9.05
2023-01-03T17:54:02.592Z,8.75
2023-01-03T17:56:29.760Z,9.35
2023-01-03T17:58:57.411Z,9.55
2023-01-03T18:01:24.418Z,8.27
2023-01-03T18:03:51.435Z,9.50
2023-01-03T18:06:22.390Z,10.18
2023-01-03T18:08:50.840Z,10.20
2023-01-03T18:11:20.474Z,9.93
2023-01-03T18:13:48.569Z,9.98
2023-01-03T18:16:18.409Z,9.65
2023-01-03T18:18:45.875Z,10.10
2023-01-03T18:21:24.298Z,11.23
2023-01-03T18:23:58.715Z,11.73
2023-01-03T18:26:34.385Z,12.35
2023-01-03T18:31:30.614Z,11.60
2023-01-03T18:33:57.923Z,11.48
2023-01-03T18:36:27.445Z,12.60
2023-01-03T18:39:06.641Z,10.95
2023-01-03T18:41:34.489Z,11.52
2023-01-03T18:44:01.315Z,10.85
2023-01-03T18:46:29.272Z,11.38
2023-01-03T18:48:56.223Z,11.02
2023-01-03T18:51:28.842Z,11.23
2023-01-03T18:53:58.533Z,10.70
2023-01-03T18:56:35.603Z,10.65
2023-01-03T18:59:18.154Z,11.02
2023-01-03T19:01:44.963Z,9.15
2023-01-03T19:04:11.860Z,10.52
2023-01-03T19:06:43.308Z,10.15
2023-01-03T19:09:14.354Z,9.95
2023-01-03T19:11:41.169Z,9.57
2023-01-03T19:14:08.926Z,9.75
2023-01-03T19:16:37.695Z,10.48
2023-01-03T19:19:05.868Z,9.82
2023-01-03T19:21:35.873Z,9.98
2023-01-03T19:24:30.682Z,9.70
2023-01-03T19:27:11.215Z,9.65
2023-01-03T19:29:38.227Z,9.40
2023-01-03T19:32:11.962Z,9.30
2023-01-03T19:34:38.707Z,9.77
2023-01-03T19:37:05.509Z,9.00
2023-01-03T19:39:37.107Z,10.52
2023-01-03T19:42:24.091Z,10.57
2023-01-03T19:44:50.919Z,10.25
2023-01-03T19:47:20.559Z,10.98
2023-01-03T19:49:48.045Z,10.68
2023-01-03T19:52:15.661Z,11.25
2023-01-03T19:54:42.971Z,11.70
2023-01-03T19:57:33.306Z,11.50
2023-01-03T20:00:01.111Z,12.20
2023-01-03T20:02:40.815Z,11.85
2023-01-03T20:05:21.352Z,13.27
2023-01-03T20:07:49.634Z,12.77
2023-01-03T20:10:19.807Z,14.13
2023-01-03T20:12:48.267Z,12.73
2023-01-03T20:15:19.053Z,14.18
2023-01-03T20:17:45.854Z,14.63
2023-01-03T20:20:13.913Z,15.90
2023-01-03T20:25:32.019Z,14.07
2023-01-03T20:28:01.779Z,13.98
2023-01-03T20:30:31.141Z,14.52
2023-01-03T20:32:57.878Z,14.15
2023-01-03T20:36:08.374Z,14.10
2023-01-03T20:38:16.753Z,14.07
2023-01-03T20:40:43.553Z,15.20
2023-01-03T20:43:14.655Z,15.48
2023-01-03T20:45:41.700Z,15.10
2023-01-03T20:48:25.054Z,15.82
2023-01-03T20:50:52.906Z,16.25
2023-01-03T20:53:22.389Z,15.63
2023-01-03T20:55:50.339Z,16.48
2023-01-03T20:58:25.520Z,13.77
2023-01-03T21:00:55.647Z,11.95
2023-01-03T21:03:25.289Z,12.50
2023-01-03T21:05:54.866Z,12.90
2023-01-03T21:08:40.091Z,13.10
2023-01-03T21:11:06.866Z,11.03
2023-01-03T21:13:33.659Z,11.45
2023-01-03T21:16:00.348Z,10.85
2023-01-03T21:18:27.170Z,10.02
2023-01-03T21:20:53.992Z,10.35
2023-01-03T21:23:23.398Z,9.20
2023-01-03T21:25:50.692Z,9.43
2023-01-03T21:28:17.388Z,10.57
2023-01-03T21:30:44.236Z,10.05
2023-01-03T21:33:17.234Z,10.77
2023-01-03T21:35:44.360Z,11.02
2023-01-03T21:38:11.269Z,11.32
2023-01-03T21:40:38.161Z,10.63
2023-01-03T21:43:05.601Z,11.35
2023-01-03T21:45:41.245Z,11.25
2023-01-03T21:48:11.142Z,11.00
2023-01-03T21:50:40.169Z,10.20
2023-01-03T21:53:07.190Z,11.27
2023-01-03T21:55:34.042Z,10.95
2023-01-03T21:58:01.289Z,10.98
2023-01-03T22:00:28.096Z,10.80
2023-01-03T22:03:13.270Z,10.88
2023-01-03T22:05:40.186Z,10.57
2023-01-03T22:08:06.868Z,10.57
2023-01-03T22:10:34.377Z,10.70
2023-01-03T22:13:04.353Z,10.73
2023-01-03T22:15:31.251Z,11.27
2023-01-03T22:17:58.076Z,10.60
2023-01-03T22:20:26.481Z,10.38
2023-01-03T22:22:53.931Z,10.43
2023-01-03T22:25:22.966Z,10.57
2023-01-03T22:27:50.425Z,10.52
2023-01-03T22:30:18.829Z,10.27
2023-01-03T22:32:46.614Z,10.43
2023-01-03T22:35:15.450Z,10.02
2023-01-03T22:37:42.323Z,10.57
2023-01-03T22:40:13.279Z,11.02
2023-01-03T22:42:40.010Z,10.85
2023-01-03T22:45:07.889Z,10.55
2023-01-03T22:47:37.967Z,11.15
2023-01-03T22:50:06.458Z,11.10
2023-01-03T22:52:33.981Z,10.98
2023-01-03T22:55:01.137Z,11.85
2023-01-03T22:57:27.987Z,10.95
2023-01-03T22:59:54.690Z,10.82
2023-01-03T23:02:28.082Z,10.52
2023-01-03T23:04:55.807Z,11.07
2023-01-03T23:07:22.601Z,16.58
2023-01-03T23:09:49.400Z,16.50
2023-01-03T23:12:34.775Z,12.48
2023-01-03T23:15:01.974Z,11.23
2023-01-03T23:17:47.426Z,11.50
2023-01-03T23:20:14.219Z,10.88
2023-01-03T23:22:41.048Z,11.32
2023-01-03T23:25:08.106Z,11.20
2023-01-03T23:27:34.914Z,10.75
2023-01-03T23:30:01.839Z,11.90
2023-01-03T23:32:28.605Z,10.35
2023-01-03T23:34:55.407Z,10.55
2023-01-03T23:37:22.121Z,10.43
2023-01-03T23:39:48.871Z,10.27
2023-01-03T23:42:15.664Z,9.88
2023-01-03T23:44:42.374Z,11.00
2023-01-03T23:47:12.693Z,11.38
2023-01-03T23:49:39.781Z,11.57
2023-01-03T23:52:06.641Z,10.77
2023-01-03T23:54:34.570Z,11.00
2023-01-03T23:57:01.308Z,11.30
2023-01-03T23:59:28.076Z,11.45
